createdAt,value
2022-10-12T00:00:02.601Z,15.75
2022-10-12T00:02:40.878Z,14.50
2022-10-12T00:05:08.980Z,12.00
2022-10-12T00:07:36.669Z,15.00
2022-10-12T00:10:06.257Z,10.50
2022-10-12T00:12:34.349Z,14.75
2022-10-12T00:15:01.736Z,10.00
2022-10-12T00:17:29.112Z,14.00
2022-10-12T00:19:56.489Z,11.25
2022-10-12T00:22:23.872Z,14.00
2022-10-12T00:24:51.248Z,13.50
2022-10-12T00:27:19.943Z,13.00
2022-10-12T00:29:47.332Z,10.50
2022-10-12T00:32:15.187Z,13.00
2022-10-12T00:34:42.595Z,12.00
2022-10-12T00:37:09.972Z,13.75
2022-10-12T00:39:37.421Z,12.50
2022-10-12T00:42:05.086Z,15.75
2022-10-12T00:44:39.165Z,12.00
2022-10-12T00:47:09.283Z,13.00
2022-10-12T00:49:36.688Z,13.00
2022-10-12T00:52:06.038Z,12.25
2022-10-12T00:54:35.143Z,10.75
2022-10-12T00:57:03.290Z,12.25
2022-10-12T00:59:32.523Z,11.25
2022-10-12T01:02:01.178Z,12.75
2022-10-12T01:04:28.581Z,12.75
2022-10-12T01:06:55.970Z,10.00
2022-10-12T01:09:23.597Z,15.00
2022-10-12T01:11:51.002Z,12.00
2022-10-12T01:14:18.416Z,13.50
2022-10-12T01:16:47.719Z,11.50
2022-10-12T01:19:25.300Z,11.00
2022-10-12T01:21:54.468Z,13.75
2022-10-12T01:24:34.462Z,13.00
2022-10-12T01:27:04.396Z,12.50
2022-10-12T01:29:40.063Z,12.75
2022-10-12T01:32:10.241Z,13.00
2022-10-12T01:34:41.975Z,11.75
2022-10-12T01:37:11.989Z,11.75
2022-10-12T01:39:41.056Z,12.00
2022-10-12T01:42:09.790Z,10.25
2022-10-12T01:44:42.022Z,12.00
2022-10-12T01:47:11.540Z,9.75
2022-10-12T01:49:38.920Z,11.75
2022-10-12T01:52:14.091Z,13.00
2022-10-12T01:54:57.840Z,11.75
2022-10-12T01:57:29.650Z,9.25
2022-10-12T02:00:02.489Z,10.75
2022-10-12T02:02:36.338Z,10.50
2022-10-12T02:05:05.250Z,12.00
2022-10-12T02:07:44.777Z,10.75
2022-10-12T02:10:13.781Z,9.50
2022-10-12T02:12:41.345Z,14.00
2022-10-12T02:15:09.219Z,11.25
2022-10-12T02:17:38.242Z,11.00
2022-10-12T02:20:06.660Z,8.75
2022-10-12T02:22:35.761Z,11.50
2022-10-12T02:25:04.486Z,9.25
2022-10-12T02:27:31.876Z,8.00
2022-10-12T02:29:59.249Z,9.50
2022-10-12T02:32:29.445Z,10.75
2022-10-12T02:34:59.384Z,9.75
2022-10-12T02:37:31.244Z,10.50
2022-10-12T02:40:01.630Z,8.00
2022-10-12T02:42:41.794Z,7.75
2022-10-12T02:45:18.117Z,10.00
2022-10-12T02:47:45.829Z,9.00
2022-10-12T02:50:14.496Z,11.75
2022-10-12T02:52:41.876Z,9.75
2022-10-12T02:55:09.395Z,10.75
2022-10-12T02:57:37.076Z,9.50
2022-10-12T03:00:05.162Z,8.00
2022-10-12T03:02:32.556Z,11.75
2022-10-12T03:04:59.959Z,11.75
2022-10-12T03:07:28.614Z,10.00
2022-10-12T03:09:56.006Z,10.00
2022-10-12T03:12:23.402Z,8.25
2022-10-12T03:14:50.775Z,9.50
2022-10-12T03:17:18.165Z,9.25
2022-10-12T03:19:45.550Z,10.50
2022-10-12T03:22:12.934Z,11.00
2022-10-12T03:24:41.612Z,7.50
2022-10-12T03:27:08.994Z,9.00
2022-10-12T03:29:36.365Z,6.75
2022-10-12T03:32:03.746Z,9.00
2022-10-12T03:34:31.122Z,8.00
2022-10-12T03:36:58.502Z,9.25
2022-10-12T03:39:25.728Z,10.25
2022-10-12T03:41:54.391Z,10.25
2022-10-12T03:44:21.772Z,9.25
2022-10-12T03:46:49.147Z,8.50
2022-10-12T03:49:16.535Z,7.25
2022-10-12T03:51:43.922Z,7.75
2022-10-12T03:54:11.334Z,9.00
2022-10-12T03:56:38.699Z,9.00
2022-10-12T03:59:07.368Z,9.75
2022-10-12T04:01:34.825Z,10.50
2022-10-12T04:04:02.272Z,7.75
2022-10-12T04:06:29.653Z,6.00
2022-10-12T04:08:57.045Z,9.00
2022-10-12T04:11:24.452Z,9.00
2022-10-12T04:13:51.835Z,7.50
2022-10-12T04:16:20.628Z,9.25
2022-10-12T04:18:48.022Z,8.00
2022-10-12T04:21:16.034Z,9.75
2022-10-12T04:23:43.586Z,8.25
2022-10-12T04:26:11.122Z,8.50
2022-10-12T04:28:38.574Z,7.50
2022-10-12T04:31:06.010Z,9.25
2022-10-12T04:33:34.730Z,7.50
2022-10-12T04:36:02.105Z,8.50
2022-10-12T04:38:29.502Z,6.00
2022-10-12T04:40:57.656Z,9.00
2022-10-12T04:43:25.043Z,7.00
2022-10-12T04:45:56.243Z,8.75
2022-10-12T04:48:23.661Z,8.00
2022-10-12T04:50:52.392Z,9.00
2022-10-12T04:53:19.886Z,7.75
2022-10-12T04:55:47.296Z,7.00
2022-10-12T04:58:14.685Z,8.50
2022-10-12T05:00:42.072Z,8.25
2022-10-12T05:03:09.458Z,7.75
2022-10-12T05:05:36.849Z,6.00
2022-10-12T05:08:05.676Z,8.25
2022-10-12T05:10:33.061Z,7.50
2022-10-12T05:13:00.449Z,10.00
2022-10-12T05:15:28.067Z,4.00
2022-10-12T05:17:55.438Z,7.25
2022-10-12T05:20:22.817Z,7.50
2022-10-12T05:22:50.190Z,7.00
2022-10-12T05:25:19.343Z,7.25
2022-10-12T05:27:46.714Z,7.00
2022-10-12T05:30:14.177Z,7.00
2022-10-12T05:32:41.669Z,7.75
2022-10-12T05:35:10.033Z,7.00
2022-10-12T05:37:37.712Z,9.50
2022-10-12T05:40:05.992Z,11.75
2022-10-12T05:42:35.778Z,6.25
2022-10-12T05:45:03.367Z,5.00
2022-10-12T05:47:30.851Z,8.50
2022-10-12T05:49:58.253Z,9.00
2022-10-12T05:52:25.653Z,8.00
2022-10-12T05:54:53.028Z,10.00
2022-10-12T05:57:20.421Z,8.00
2022-10-12T05:59:49.088Z,7.50
2022-10-12T06:02:17.188Z,7.25
2022-10-12T06:04:44.695Z,8.00
2022-10-12T06:07:11.936Z,8.25
2022-10-12T06:09:39.715Z,7.50
2022-10-12T06:12:07.375Z,8.75
2022-10-12T06:14:34.825Z,10.75
2022-10-12T06:17:03.483Z,9.00
2022-10-12T06:19:30.875Z,7.50
2022-10-12T06:21:58.485Z,8.00
2022-10-12T06:24:25.877Z,7.00
2022-10-12T06:26:53.322Z,6.25
2022-10-12T06:29:23.198Z,10.00
2022-10-12T06:31:51.829Z,7.75
2022-10-12T06:34:20.693Z,8.25
2022-10-12T06:36:48.064Z,8.50
2022-10-12T06:39:15.443Z,10.75
2022-10-12T06:41:42.844Z,10.75
2022-10-12T06:44:10.245Z,10.00
2022-10-12T06:46:37.623Z,12.00
2022-10-12T06:49:05.016Z,13.75
2022-10-12T06:51:33.769Z,11.00
2022-10-12T06:54:01.224Z,12.00
2022-10-12T06:56:28.679Z,13.25
2022-10-12T06:58:56.418Z,11.75
2022-10-12T07:01:24.016Z,12.25
2022-10-12T07:03:51.504Z,10.75
2022-10-12T07:06:19.076Z,10.00
2022-10-12T07:08:48.996Z,10.00
2022-10-12T07:11:16.551Z,11.75
2022-10-12T07:13:43.952Z,14.00
2022-10-12T07:16:11.369Z,12.50
2022-10-12T07:18:40.047Z,12.00
2022-10-12T07:21:07.502Z,11.75
2022-10-12T07:23:35.248Z,15.00
2022-10-12T07:26:03.954Z,11.75
2022-10-12T07:28:31.479Z,11.00
2022-10-12T07:31:03.081Z,9.00
2022-10-12T07:33:34.012Z,12.00
2022-10-12T07:38:49.190Z,11.00
2022-10-12T07:41:17.984Z,10.25
2022-10-12T07:43:45.360Z,11.25
2022-10-12T07:46:12.934Z,12.00
2022-10-12T07:48:45.674Z,11.50
2022-10-12T07:51:16.583Z,9.00
2022-10-12T07:53:44.232Z,12.00
2022-10-12T07:56:15.174Z,11.25
2022-10-12T07:58:44.131Z,10.75
2022-10-12T08:01:11.528Z,9.50
2022-10-12T08:03:39.019Z,11.25
2022-10-12T08:06:10.573Z,9.75
2022-10-12T08:08:37.964Z,9.50
2022-10-12T08:11:05.513Z,10.25
2022-10-12T08:13:33.033Z,9.25
2022-10-12T08:16:01.790Z,9.50
2022-10-12T08:18:29.267Z,8.75
2022-10-12T08:20:56.704Z,1.00
2022-10-12T08:23:24.364Z,9.75
2022-10-12T08:25:55.276Z,6.00
2022-10-12T08:28:22.719Z,8.75
2022-10-12T08:30:50.835Z,9.50
2022-10-12T08:33:19.724Z,9.50
2022-10-12T08:35:47.632Z,5.25
2022-10-12T08:38:15.348Z,7.75
2022-10-12T08:40:44.782Z,9.75
2022-10-12T08:43:14.852Z,7.00
2022-10-12T08:45:44.771Z,10.00
2022-10-12T08:48:14.335Z,8.50
2022-10-12T08:50:45.298Z,4.75
2022-10-12T08:53:15.857Z,4.00
2022-10-12T08:55:44.215Z,6.00
2022-10-12T08:58:15.863Z,7.25
2022-10-12T09:00:43.373Z,5.75
2022-10-12T09:03:15.642Z,3.00
2022-10-12T09:05:45.275Z,9.00
2022-10-12T09:08:14.961Z,5.75
2022-10-12T09:10:46.922Z,6.50
2022-10-12T09:13:34.959Z,6.00
2022-10-12T09:16:03.619Z,7.25
2022-10-12T09:18:39.626Z,6.00
2022-10-12T09:21:11.448Z,6.75
2022-10-12T09:23:39.684Z,9.00
2022-10-12T09:26:12.406Z,7.50
2022-10-12T09:28:41.332Z,6.00
2022-10-12T09:31:17.788Z,7.25
2022-10-12T09:33:46.232Z,4.50
2022-10-12T09:36:17.035Z,5.00
2022-10-12T09:38:44.408Z,6.50
2022-10-12T09:41:15.579Z,5.25
2022-10-12T09:43:42.956Z,5.25
2022-10-12T09:46:11.474Z,5.00
2022-10-12T09:48:38.892Z,5.25
2022-10-12T09:51:06.399Z,7.25
2022-10-12T09:53:36.105Z,8.00
2022-10-12T09:56:06.078Z,6.00
2022-10-12T09:58:38.480Z,10.25
2022-10-12T10:01:18.923Z,11.00
2022-10-12T10:03:47.176Z,10.25
2022-10-12T10:06:15.810Z,12.75
2022-10-12T10:08:45.270Z,10.00
2022-10-12T10:11:16.681Z,14.00
2022-10-12T10:13:51.992Z,10.25
2022-10-12T10:16:21.410Z,8.00
2022-10-12T10:18:49.391Z,8.50
2022-10-12T10:21:17.998Z,7.25
2022-10-12T10:23:51.647Z,5.00
2022-10-12T10:26:20.477Z,5.75
2022-10-12T10:28:48.306Z,5.25
2022-10-12T10:31:21.852Z,3.67
2022-10-12T10:34:04.838Z,4.00
2022-10-12T10:36:32.320Z,4.00
2022-10-12T10:39:04.723Z,3.00
2022-10-12T10:41:33.099Z,4.00
2022-10-12T10:44:00.508Z,5.50
2022-10-12T10:46:29.164Z,6.00
2022-10-12T10:48:58.818Z,5.00
2022-10-12T10:51:40.423Z,5.50
2022-10-12T10:54:15.901Z,2.00
2022-10-12T10:56:43.385Z,3.25
2022-10-12T10:59:16.100Z,3.00
2022-10-12T11:01:46.896Z,5.00
2022-10-12T11:04:15.452Z,4.75
2022-10-12T11:06:43.762Z,4.75
2022-10-12T11:09:15.673Z,4.25
2022-10-12T11:11:43.113Z,4.00
2022-10-12T11:14:15.024Z,4.00
2022-10-12T11:16:43.300Z,4.50
2022-10-12T11:19:19.048Z,2.00
2022-10-12T11:21:48.199Z,3.00
2022-10-12T11:24:18.290Z,2.50
2022-10-12T11:26:47.285Z,2.25
2022-10-12T11:29:14.829Z,4.00
2022-10-12T11:31:44.338Z,4.25
2022-10-12T11:34:14.718Z,3.50
2022-10-12T11:36:55.796Z,2.50
2022-10-12T11:39:34.025Z,4.75
2022-10-12T11:42:21.885Z,3.25
2022-10-12T11:44:49.439Z,3.75
2022-10-12T11:47:18.758Z,3.00
2022-10-12T11:49:50.361Z,3.00
2022-10-12T11:52:17.820Z,3.00
2022-10-12T11:54:49.079Z,1.75
2022-10-12T11:57:18.467Z,3.00
2022-10-12T11:59:47.505Z,2.25
2022-10-12T12:02:17.890Z,3.00
2022-10-12T12:04:45.603Z,2.75
2022-10-12T12:07:42.524Z,2.00
2022-10-12T12:10:50.492Z,2.00
2022-10-12T12:13:22.690Z,3.75
2022-10-12T12:16:30.509Z,3.00
2022-10-12T12:19:41.690Z,4.50
2022-10-12T12:22:19.853Z,3.25
2022-10-12T12:25:04.114Z,2.25
2022-10-12T12:27:37.495Z,3.00
2022-10-12T12:30:07.112Z,2.75
2022-10-12T12:32:42.672Z,2.75
2022-10-12T12:35:24.935Z,2.00
2022-10-12T12:38:01.923Z,3.00
2022-10-12T12:40:29.376Z,3.00
2022-10-12T12:43:15.245Z,2.50
2022-10-12T12:45:54.740Z,3.00
2022-10-12T12:48:55.766Z,3.00
2022-10-12T12:51:24.173Z,2.00
2022-10-12T12:53:52.150Z,3.33
2022-10-12T12:56:21.463Z,2.00
2022-10-12T12:59:05.103Z,2.00
2022-10-12T13:01:49.056Z,2.25
2022-10-12T13:04:25.096Z,2.25
2022-10-12T13:07:06.956Z,2.00
2022-10-12T13:09:42.356Z,4.50
2022-10-12T13:12:19.783Z,2.50
2022-10-12T13:14:54.679Z,1.00
2022-10-12T13:17:34.893Z,1.00
2022-10-12T13:20:02.589Z,2.00
2022-10-12T13:22:32.201Z,2.00
2022-10-12T13:25:00.364Z,2.00
2022-10-12T13:27:30.724Z,1.00
2022-10-12T13:29:59.355Z,2.00
2022-10-12T13:32:33.987Z,1.00
2022-10-12T13:35:06.226Z,2.50
2022-10-12T13:37:34.815Z,3.00
2022-10-12T13:40:02.565Z,2.00
2022-10-12T13:42:32.517Z,1.75
2022-10-12T13:44:59.892Z,1.50
2022-10-12T13:47:28.045Z,2.00
2022-10-12T13:49:56.791Z,2.00
2022-10-12T13:52:30.958Z,2.75
2022-10-12T13:54:59.461Z,1.00
2022-10-12T13:57:29.448Z,1.25
2022-10-12T13:59:58.555Z,1.75
2022-10-12T14:02:27.400Z,2.00
2022-10-12T14:04:56.576Z,2.00
2022-10-12T14:07:25.604Z,3.00
2022-10-12T14:09:55.251Z,2.00
2022-10-12T14:12:25.466Z,1.00
2022-10-12T14:14:53.143Z,2.00
2022-10-12T14:17:20.697Z,1.00
2022-10-12T14:19:49.655Z,2.25
2022-10-12T14:22:22.172Z,2.00
2022-10-12T14:24:49.608Z,2.00
2022-10-12T14:27:23.048Z,1.75
2022-10-12T14:29:56.990Z,2.00
2022-10-12T14:32:42.064Z,1.00
2022-10-12T14:35:23.558Z,0.00
2022-10-12T14:37:53.063Z,2.00
2022-10-12T14:40:35.173Z,0.75
2022-10-12T14:43:04.703Z,2.00
2022-10-12T14:45:32.374Z,1.00
2022-10-12T14:48:00.024Z,3.00
2022-10-12T14:50:27.625Z,1.00
2022-10-12T14:52:57.122Z,1.25
2022-10-12T14:55:25.889Z,2.00
2022-10-12T14:57:53.476Z,1.50
2022-10-12T15:00:21.788Z,1.00
2022-10-12T15:02:49.234Z,1.50
2022-10-12T15:05:18.155Z,2.00
2022-10-12T15:07:46.828Z,4.00
2022-10-12T15:10:15.669Z,1.25
2022-10-12T15:12:43.654Z,2.00
2022-10-12T15:15:19.479Z,1.25
2022-10-12T15:17:46.892Z,1.25
2022-10-12T15:20:14.382Z,1.00
2022-10-12T15:22:41.768Z,1.50
2022-10-12T15:25:14.937Z,1.50
2022-10-12T15:27:43.661Z,1.50
2022-10-12T15:30:12.464Z,1.00
2022-10-12T15:32:39.886Z,2.00
2022-10-12T15:35:15.524Z,2.50
2022-10-12T15:37:42.916Z,1.75
2022-10-12T15:40:11.878Z,1.00
2022-10-12T15:42:39.371Z,1.50
2022-10-12T15:45:15.318Z,1.00
2022-10-12T15:47:42.721Z,2.25
2022-10-12T15:50:10.172Z,2.25
2022-10-12T15:52:37.590Z,2.00
2022-10-12T15:55:06.875Z,2.75
2022-10-12T15:57:34.288Z,4.75
2022-10-12T16:00:01.660Z,5.00
2022-10-12T16:02:30.402Z,5.00
2022-10-12T16:04:57.813Z,5.75
2022-10-12T16:07:25.290Z,5.25
2022-10-12T16:09:52.663Z,5.00
2022-10-12T16:12:20.050Z,6.25
2022-10-12T16:14:47.525Z,4.75
2022-10-12T16:17:15.245Z,3.00
2022-10-12T16:19:44.230Z,5.75
2022-10-12T16:22:11.791Z,3.25
2022-10-12T16:24:39.211Z,3.50
2022-10-12T16:27:06.633Z,5.75
2022-10-12T16:29:34.101Z,7.00
2022-10-12T16:32:01.864Z,3.00
2022-10-12T16:34:30.758Z,4.00
2022-10-12T16:37:00.213Z,3.00
2022-10-12T16:39:27.967Z,3.00
2022-10-12T16:41:55.347Z,3.25
2022-10-12T16:44:22.746Z,4.00
2022-10-12T16:46:50.239Z,2.25
2022-10-12T16:49:17.625Z,4.50
2022-10-12T16:51:45.017Z,2.75
2022-10-12T16:54:13.664Z,3.75
2022-10-12T16:56:41.057Z,3.00
2022-10-12T16:59:08.495Z,3.00
2022-10-12T17:01:35.898Z,3.33
2022-10-12T17:04:03.131Z,4.67
2022-10-12T17:06:30.641Z,3.00
2022-10-12T17:08:58.498Z,3.00
2022-10-12T17:11:27.160Z,1.00
2022-10-12T17:13:55.739Z,4.25
2022-10-12T17:16:40.968Z,4.00
2022-10-12T17:19:08.483Z,6.00
2022-10-12T17:21:37.650Z,3.00
2022-10-12T17:24:05.404Z,4.00
2022-10-12T17:26:38.596Z,2.00
2022-10-12T17:29:09.276Z,2.25
2022-10-12T17:31:36.654Z,3.00
2022-10-12T17:34:04.061Z,3.00
2022-10-12T17:36:31.448Z,4.50
2022-10-12T17:38:59.045Z,3.75
2022-10-12T17:41:26.507Z,5.50
2022-10-12T17:43:55.217Z,4.00
2022-10-12T17:46:23.005Z,5.00
2022-10-12T17:48:50.484Z,5.00
2022-10-12T17:51:18.201Z,5.00
2022-10-12T17:53:45.575Z,3.00
2022-10-12T17:56:13.644Z,4.00
2022-10-12T17:58:41.036Z,4.00
2022-10-12T18:01:10.777Z,3.75
2022-10-12T18:03:39.660Z,5.00
2022-10-12T18:06:07.600Z,4.00
2022-10-12T18:08:35.026Z,4.00
2022-10-12T18:11:02.603Z,5.00
2022-10-12T18:13:30.101Z,4.67
2022-10-12T18:15:57.969Z,4.00
2022-10-12T18:18:26.628Z,4.00
2022-10-12T18:20:54.115Z,5.00
2022-10-12T18:23:21.496Z,5.00
2022-10-12T18:25:50.722Z,5.00
2022-10-12T18:28:18.149Z,4.00
2022-10-12T18:30:49.434Z,5.00
2022-10-12T18:33:17.280Z,5.00
2022-10-12T18:35:45.944Z,4.00
2022-10-12T18:38:13.308Z,4.67
2022-10-12T18:40:42.425Z,5.00
2022-10-12T18:43:09.995Z,6.00
2022-10-12T18:49:51.698Z,5.00
2022-10-12T18:53:29.278Z,3.00
2022-10-12T18:56:55.094Z,5.00
2022-10-12T19:00:07.417Z,5.67
2022-10-12T19:03:06.957Z,4.00
2022-10-12T19:06:24.337Z,2.00
2022-10-12T19:16:20.967Z,5.25
2022-10-12T19:19:44.432Z,3.00
2022-10-12T19:22:57.255Z,3.25
2022-10-12T19:26:10.956Z,5.50
2022-10-12T19:29:18.543Z,3.00
2022-10-12T19:32:02.081Z,2.00
2022-10-12T19:34:44.755Z,3.75
2022-10-12T19:37:44.296Z,5.00
2022-10-12T19:40:44.262Z,4.50
2022-10-12T19:43:54.712Z,6.25
2022-10-12T19:47:17.583Z,2.00
2022-10-12T19:50:19.755Z,3.75
2022-10-12T19:53:28.836Z,5.00
2022-10-12T19:56:26.437Z,4.75
2022-10-12T19:59:08.525Z,6.00
2022-10-12T20:02:18.109Z,6.75
2022-10-12T20:12:00.039Z,7.00
2022-10-12T20:15:53.520Z,6.75
2022-10-12T20:19:10.260Z,6.50
2022-10-12T20:22:27.662Z,5.75
2022-10-12T20:25:40.522Z,7.25
2022-10-12T20:28:13.700Z,7.25
2022-10-12T20:30:42.967Z,7.00
2022-10-12T20:33:17.410Z,11.25
2022-10-12T20:35:50.511Z,10.00
2022-10-12T20:38:26.348Z,9.50
2022-10-12T20:41:21.470Z,8.50
2022-10-12T20:44:22.383Z,9.00
2022-10-12T20:47:05.715Z,4.25
2022-10-12T20:49:33.541Z,9.00
2022-10-12T20:52:01.019Z,7.25
2022-10-12T20:54:29.973Z,7.75
2022-10-12T20:56:57.492Z,7.50
2022-10-12T20:59:24.934Z,8.25
2022-10-12T21:01:52.429Z,11.25
2022-10-12T21:04:19.865Z,10.50
2022-10-12T21:06:47.355Z,9.75
2022-10-12T21:09:14.979Z,10.00
2022-10-12T21:11:44.356Z,10.00
2022-10-12T21:14:11.942Z,12.00
2022-10-12T21:16:39.364Z,11.00
2022-10-12T21:19:06.764Z,12.25
2022-10-12T21:21:34.182Z,11.75
2022-10-12T21:24:01.653Z,9.00
2022-10-12T21:26:30.052Z,12.50
2022-10-12T21:28:59.548Z,10.00
2022-10-12T21:31:31.789Z,14.00
2022-10-12T21:34:01.002Z,12.00
2022-10-12T21:36:28.467Z,10.50
2022-10-12T21:38:55.889Z,9.50
2022-10-12T21:41:24.096Z,11.50
2022-10-12T21:43:51.856Z,10.50
2022-10-12T21:46:21.444Z,10.25
2022-10-12T21:48:49.025Z,11.50
2022-10-12T21:51:16.551Z,14.00
2022-10-12T21:53:43.967Z,11.50
2022-10-12T21:56:15.059Z,9.25
2022-10-12T21:58:42.570Z,11.50
2022-10-12T22:01:11.206Z,10.00
2022-10-12T22:03:39.959Z,10.50
2022-10-12T22:06:09.813Z,10.25
2022-10-12T22:08:37.196Z,11.00
2022-10-12T22:11:06.370Z,9.25
2022-10-12T22:13:33.847Z,10.00
2022-10-12T22:16:02.141Z,11.25
2022-10-12T22:18:29.561Z,9.75
2022-10-12T22:20:58.311Z,8.00
2022-10-12T22:23:25.777Z,9.00
2022-10-12T22:25:53.964Z,8.50
2022-10-12T22:28:21.428Z,9.00
2022-10-12T22:30:48.838Z,10.00
2022-10-12T22:33:16.252Z,10.00
2022-10-12T22:35:52.918Z,10.75
2022-10-12T22:38:23.634Z,9.00
2022-10-12T22:44:31.161Z,8.00
2022-10-12T22:55:45.629Z,7.50
2022-10-12T22:59:00.975Z,6.75
2022-10-12T23:02:17.661Z,6.25
2022-10-12T23:05:25.281Z,8.50
2022-10-12T23:08:49.909Z,8.50
2022-10-12T23:22:52.550Z,9.75
2022-10-12T23:25:57.990Z,7.00
2022-10-12T23:28:41.305Z,6.50
2022-10-12T23:31:47.386Z,8.00
2022-10-12T23:34:57.662Z,8.50
2022-10-12T23:38:02.171Z,8.00
2022-10-12T23:41:21.454Z,7.00
2022-10-12T23:51:51.862Z,7.75
2022-10-12T23:54:35.009Z,7.75
2022-10-12T23:57:14.028Z,8.00
2022-10-12T23:59:53.379Z,8.00
